sensor_id;sensor_type;location;lat;lon;timestamp;temperature;humidity
60353;DHT22;46196;52.970;6.954;2024-03-08T00:01:15;1.30;99.90
60353;DHT22;46196;52.970;6.954;2024-03-08T00:03:42;1.40;99.90
60353;DHT22;46196;52.970;6.954;2024-03-08T00:06:08;1.30;99.90
60353;DHT22;46196;52.970;6.954;2024-03-08T00:08:34;1.30;99.90
60353;DHT22;46196;52.970;6.954;2024-03-08T00:10:59;1.30;99.90
60353;DHT22;46196;52.970;6.954;2024-03-08T00:13:25;1.30;99.90
60353;DHT22;46196;52.970;6.954;2024-03-08T00:15:51;1.30;99.90
60353;DHT22;46196;52.970;6.954;2024-03-08T00:18:17;1.30;99.90
60353;DHT22;46196;52.970;6.954;2024-03-08T00:20:42;1.50;99.90
60353;DHT22;46196;52.970;6.954;2024-03-08T00:23:09;1.30;99.90
60353;DHT22;46196;52.970;6.954;2024-03-08T00:25:36;1.30;99.90
60353;DHT22;46196;52.970;6.954;2024-03-08T00:28:02;2.20;99.90
60353;DHT22;46196;52.970;6.954;2024-03-08T00:30:30;1.30;99.90
60353;DHT22;46196;52.970;6.954;2024-03-08T00:32:56;1.20;99.90
60353;DHT22;46196;52.970;6.954;2024-03-08T00:35:22;1.30;99.90
60353;DHT22;46196;52.970;6.954;2024-03-08T00:37:48;1.20;99.90
60353;DHT22;46196;52.970;6.954;2024-03-08T00:40:14;1.30;99.90
60353;DHT22;46196;52.970;6.954;2024-03-08T00:42:40;1.20;99.90
60353;DHT22;46196;52.970;6.954;2024-03-08T00:45:07;1.20;99.90
60353;DHT22;46196;52.970;6.954;2024-03-08T00:47:33;1.20;99.90
60353;DHT22;46196;52.970;6.954;2024-03-08T00:49:59;1.20;99.90
60353;DHT22;46196;52.970;6.954;2024-03-08T00:52:29;1.20;99.90
60353;DHT22;46196;52.970;6.954;2024-03-08T00:54:55;1.20;99.90
60353;DHT22;46196;52.970;6.954;2024-03-08T00:57:20;1.20;99.90
60353;DHT22;46196;52.970;6.954;2024-03-08T00:59:47;1.20;99.90
60353;DHT22;46196;52.970;6.954;2024-03-08T01:02:14;1.20;99.90
60353;DHT22;46196;52.970;6.954;2024-03-08T01:04:39;1.20;99.90
60353;DHT22;46196;52.970;6.954;2024-03-08T01:07:05;1.00;99.90
60353;DHT22;46196;52.970;6.954;2024-03-08T01:09:31;1.20;99.90
60353;DHT22;46196;52.970;6.954;2024-03-08T01:11:57;1.20;99.90
60353;DHT22;46196;52.970;6.954;2024-03-08T01:14:23;1.20;99.90
60353;DHT22;46196;52.970;6.954;2024-03-08T01:16:51;1.10;99.90
60353;DHT22;46196;52.970;6.954;2024-03-08T01:19:17;1.10;99.90
60353;DHT22;46196;52.970;6.954;2024-03-08T01:21:43;1.10;99.90
60353;DHT22;46196;52.970;6.954;2024-03-08T01:24:09;1.30;99.90
60353;DHT22;46196;52.970;6.954;2024-03-08T01:26:34;1.10;99.90
60353;DHT22;46196;52.970;6.954;2024-03-08T01:29:01;1.10;99.90
60353;DHT22;46196;52.970;6.954;2024-03-08T01:31:29;1.10;99.90
60353;DHT22;46196;52.970;6.954;2024-03-08T01:33:58;1.00;99.90
60353;DHT22;46196;52.970;6.954;2024-03-08T01:36:24;1.00;99.90
60353;DHT22;46196;52.970;6.954;2024-03-08T01:38:51;1.00;99.90
60353;DHT22;46196;52.970;6.954;2024-03-08T01:41:17;1.00;99.90
60353;DHT22;46196;52.970;6.954;2024-03-08T01:43:43;1.00;99.90
60353;DHT22;46196;52.970;6.954;2024-03-08T01:46:09;1.00;99.90
60353;DHT22;46196;52.970;6.954;2024-03-08T01:48:37;1.00;99.90
60353;DHT22;46196;52.970;6.954;2024-03-08T01:51:03;1.00;99.90
60353;DHT22;46196;52.970;6.954;2024-03-08T01:53:30;1.00;99.90
60353;DHT22;46196;52.970;6.954;2024-03-08T01:55:59;0.90;99.90
60353;DHT22;46196;52.970;6.954;2024-03-08T01:58:29;1.30;99.90
60353;DHT22;46196;52.970;6.954;2024-03-08T02:00:56;0.90;99.90
60353;DHT22;46196;52.970;6.954;2024-03-08T02:03:23;0.90;99.90
60353;DHT22;46196;52.970;6.954;2024-03-08T02:05:49;0.90;99.90
60353;DHT22;46196;52.970;6.954;2024-03-08T02:08:16;0.90;99.90
60353;DHT22;46196;52.970;6.954;2024-03-08T02:10:43;0.90;99.90
60353;DHT22;46196;52.970;6.954;2024-03-08T02:13:09;0.90;99.90
60353;DHT22;46196;52.970;6.954;2024-03-08T02:15:52;0.90;99.90
60353;DHT22;46196;52.970;6.954;2024-03-08T02:18:18;0.90;99.90
60353;DHT22;46196;52.970;6.954;2024-03-08T02:21:00;0.90;99.90
60353;DHT22;46196;52.970;6.954;2024-03-08T02:23:26;0.90;99.90
60353;DHT22;46196;52.970;6.954;2024-03-08T02:25:53;0.90;99.90
60353;DHT22;46196;52.970;6.954;2024-03-08T02:28:19;0.80;99.90
60353;DHT22;46196;52.970;6.954;2024-03-08T02:30:46;1.00;99.90
60353;DHT22;46196;52.970;6.954;2024-03-08T02:33:15;0.80;99.90
60353;DHT22;46196;52.970;6.954;2024-03-08T02:35:42;0.80;99.90
60353;DHT22;46196;52.970;6.954;2024-03-08T02:38:14;0.80;99.90
60353;DHT22;46196;52.970;6.954;2024-03-08T02:40:44;0.80;99.90
60353;DHT22;46196;52.970;6.954;2024-03-08T02:43:11;-0.10;99.90
60353;DHT22;46196;52.970;6.954;2024-03-08T02:45:37;0.80;99.90
60353;DHT22;46196;52.970;6.954;2024-03-08T02:48:04;0.70;99.90
60353;DHT22;46196;52.970;6.954;2024-03-08T02:50:32;0.80;99.90
60353;DHT22;46196;52.970;6.954;2024-03-08T02:52:58;0.70;99.90
60353;DHT22;46196;52.970;6.954;2024-03-08T02:55:24;2.20;99.90
60353;DHT22;46196;52.970;6.954;2024-03-08T02:57:51;0.70;99.90
60353;DHT22;46196;52.970;6.954;2024-03-08T03:00:18;0.70;99.90
60353;DHT22;46196;52.970;6.954;2024-03-08T03:02:45;0.70;99.90
60353;DHT22;46196;52.970;6.954;2024-03-08T03:05:11;0.70;99.90
60353;DHT22;46196;52.970;6.954;2024-03-08T03:07:37;0.70;99.90
60353;DHT22;46196;52.970;6.954;2024-03-08T03:10:03;0.70;99.90
60353;DHT22;46196;52.970;6.954;2024-03-08T03:12:30;0.70;99.90
60353;DHT22;46196;52.970;6.954;2024-03-08T03:14:57;0.60;99.90
60353;DHT22;46196;52.970;6.954;2024-03-08T03:17:23;0.60;99.90
60353;DHT22;46196;52.970;6.954;2024-03-08T03:19:50;0.80;99.90
60353;DHT22;46196;52.970;6.954;2024-03-08T03:22:17;0.60;99.90
60353;DHT22;46196;52.970;6.954;2024-03-08T03:24:44;0.60;99.90
60353;DHT22;46196;52.970;6.954;2024-03-08T03:27:12;0.60;99.90
60353;DHT22;46196;52.970;6.954;2024-03-08T03:29:41;0.60;99.90
60353;DHT22;46196;52.970;6.954;2024-03-08T03:32:11;0.60;99.90
60353;DHT22;46196;52.970;6.954;2024-03-08T03:34:38;0.60;99.90
60353;DHT22;46196;52.970;6.954;2024-03-08T03:37:04;0.60;99.90
60353;DHT22;46196;52.970;6.954;2024-03-08T03:39:30;0.60;99.90
60353;DHT22;46196;52.970;6.954;2024-03-08T03:42:17;0.60;99.90
60353;DHT22;46196;52.970;6.954;2024-03-08T03:44:48;0.60;99.90
60353;DHT22;46196;52.970;6.954;2024-03-08T03:47:14;0.60;99.90
60353;DHT22;46196;52.970;6.954;2024-03-08T03:49:41;0.60;99.90
60353;DHT22;46196;52.970;6.954;2024-03-08T03:52:07;0.60;99.90
60353;DHT22;46196;52.970;6.954;2024-03-08T03:54:33;0.60;99.90
60353;DHT22;46196;52.970;6.954;2024-03-08T03:56:59;0.60;99.90
60353;DHT22;46196;52.970;6.954;2024-03-08T03:59:26;0.60;99.90
60353;DHT22;46196;52.970;6.954;2024-03-08T04:01:55;1.00;99.90
60353;DHT22;46196;52.970;6.954;2024-03-08T04:04:21;0.60;99.90
60353;DHT22;46196;52.970;6.954;2024-03-08T04:06:47;0.60;99.90
60353;DHT22;46196;52.970;6.954;2024-03-08T04:09:13;0.50;99.90
60353;DHT22;46196;52.970;6.954;2024-03-08T04:11:39;0.50;99.90
60353;DHT22;46196;52.970;6.954;2024-03-08T04:14:05;0.50;99.90
60353;DHT22;46196;52.970;6.954;2024-03-08T04:16:31;0.50;99.90
60353;DHT22;46196;52.970;6.954;2024-03-08T04:19:00;0.50;99.90
60353;DHT22;46196;52.970;6.954;2024-03-08T04:21:30;0.50;99.90
60353;DHT22;46196;52.970;6.954;2024-03-08T04:23:56;0.40;99.90
60353;DHT22;46196;52.970;6.954;2024-03-08T04:26:22;0.40;99.90
60353;DHT22;46196;52.970;6.954;2024-03-08T04:28:48;0.40;99.90
60353;DHT22;46196;52.970;6.954;2024-03-08T04:31:14;0.40;99.90
60353;DHT22;46196;52.970;6.954;2024-03-08T04:33:41;0.40;99.90
60353;DHT22;46196;52.970;6.954;2024-03-08T04:36:07;0.40;99.90
60353;DHT22;46196;52.970;6.954;2024-03-08T04:38:33;0.40;99.90
60353;DHT22;46196;52.970;6.954;2024-03-08T04:40:59;0.40;99.90
60353;DHT22;46196;52.970;6.954;2024-03-08T04:43:25;0.20;99.90
60353;DHT22;46196;52.970;6.954;2024-03-08T04:45:52;0.30;99.90
60353;DHT22;46196;52.970;6.954;2024-03-08T04:48:19;0.30;99.90
60353;DHT22;46196;52.970;6.954;2024-03-08T04:50:46;0.30;99.90
60353;DHT22;46196;52.970;6.954;2024-03-08T04:53:11;0.30;99.90
60353;DHT22;46196;52.970;6.954;2024-03-08T04:55:37;0.30;99.90
60353;DHT22;46196;52.970;6.954;2024-03-08T04:58:03;1.30;99.90
60353;DHT22;46196;52.970;6.954;2024-03-08T05:00:31;0.20;99.90
60353;DHT22;46196;52.970;6.954;2024-03-08T05:02:58;0.70;99.90
60353;DHT22;46196;52.970;6.954;2024-03-08T05:05:24;0.50;99.90
60353;DHT22;46196;52.970;6.954;2024-03-08T05:07:51;0.20;99.90
60353;DHT22;46196;52.970;6.954;2024-03-08T05:10:17;0.20;99.90
60353;DHT22;46196;52.970;6.954;2024-03-08T05:12:45;0.30;99.90
60353;DHT22;46196;52.970;6.954;2024-03-08T05:15:11;0.80;99.90
60353;DHT22;46196;52.970;6.954;2024-03-08T05:17:36;0.20;99.90
60353;DHT22;46196;52.970;6.954;2024-03-08T05:20:02;0.20;99.90
60353;DHT22;46196;52.970;6.954;2024-03-08T05:22:29;0.20;99.90
60353;DHT22;46196;52.970;6.954;2024-03-08T05:24:55;0.30;99.90
60353;DHT22;46196;52.970;6.954;2024-03-08T05:27:20;0.20;99.90
60353;DHT22;46196;52.970;6.954;2024-03-08T05:29:46;0.30;99.90
60353;DHT22;46196;52.970;6.954;2024-03-08T05:32:12;-0.50;99.90
60353;DHT22;46196;52.970;6.954;2024-03-08T05:34:38;0.20;99.90
60353;DHT22;46196;52.970;6.954;2024-03-08T05:37:04;0.30;99.90
60353;DHT22;46196;52.970;6.954;2024-03-08T05:39:29;0.20;99.90
60353;DHT22;46196;52.970;6.954;2024-03-08T05:41:55;0.20;99.90
60353;DHT22;46196;52.970;6.954;2024-03-08T05:44:21;0.30;99.90
60353;DHT22;46196;52.970;6.954;2024-03-08T05:46:47;0.20;99.90
60353;DHT22;46196;52.970;6.954;2024-03-08T05:49:12;0.20;99.90
60353;DHT22;46196;52.970;6.954;2024-03-08T05:51:40;0.10;99.90
60353;DHT22;46196;52.970;6.954;2024-03-08T05:54:08;0.20;99.90
60353;DHT22;46196;52.970;6.954;2024-03-08T05:56:36;0.20;99.90
60353;DHT22;46196;52.970;6.954;2024-03-08T05:59:02;0.00;99.90
60353;DHT22;46196;52.970;6.954;2024-03-08T06:01:28;0.10;99.90
60353;DHT22;46196;52.970;6.954;2024-03-08T06:03:55;0.20;99.90
60353;DHT22;46196;52.970;6.954;2024-03-08T06:06:25;0.40;99.90
60353;DHT22;46196;52.970;6.954;2024-03-08T06:08:51;0.10;99.90
60353;DHT22;46196;52.970;6.954;2024-03-08T06:11:18;0.10;99.90
60353;DHT22;46196;52.970;6.954;2024-03-08T06:13:46;0.10;99.90
60353;DHT22;46196;52.970;6.954;2024-03-08T06:16:12;0.20;99.90
60353;DHT22;46196;52.970;6.954;2024-03-08T06:18:38;0.10;99.90
60353;DHT22;46196;52.970;6.954;2024-03-08T06:21:07;0.10;99.90
60353;DHT22;46196;52.970;6.954;2024-03-08T06:23:37;0.10;99.90
60353;DHT22;46196;52.970;6.954;2024-03-08T06:26:04;0.10;99.90
60353;DHT22;46196;52.970;6.954;2024-03-08T06:28:30;0.10;99.90
60353;DHT22;46196;52.970;6.954;2024-03-08T06:30:58;0.20;99.90
60353;DHT22;46196;52.970;6.954;2024-03-08T06:33:24;0.10;99.90
60353;DHT22;46196;52.970;6.954;2024-03-08T06:35:52;0.20;99.90
60353;DHT22;46196;52.970;6.954;2024-03-08T06:38:18;0.20;99.90
60353;DHT22;46196;52.970;6.954;2024-03-08T06:40:45;0.20;99.90
60353;DHT22;46196;52.970;6.954;2024-03-08T06:43:13;0.20;99.90
60353;DHT22;46196;52.970;6.954;2024-03-08T06:45:42;0.30;99.90
60353;DHT22;46196;52.970;6.954;2024-03-08T06:48:11;0.20;99.90
60353;DHT22;46196;52.970;6.954;2024-03-08T06:50:36;0.30;99.90
60353;DHT22;46196;52.970;6.954;2024-03-08T06:53:02;0.30;99.90
60353;DHT22;46196;52.970;6.954;2024-03-08T06:55:28;0.30;99.90
60353;DHT22;46196;52.970;6.954;2024-03-08T06:57:54;0.40;99.90
60353;DHT22;46196;52.970;6.954;2024-03-08T07:00:20;0.40;99.90
60353;DHT22;46196;52.970;6.954;2024-03-08T07:02:46;0.40;99.90
60353;DHT22;46196;52.970;6.954;2024-03-08T07:05:12;0.50;99.90
60353;DHT22;46196;52.970;6.954;2024-03-08T07:07:37;0.50;99.90
60353;DHT22;46196;52.970;6.954;2024-03-08T07:10:03;0.50;99.90
60353;DHT22;46196;52.970;6.954;2024-03-08T07:12:30;0.60;99.90
60353;DHT22;46196;52.970;6.954;2024-03-08T07:14:55;0.60;99.90
60353;DHT22;46196;52.970;6.954;2024-03-08T07:17:21;0.70;99.90
60353;DHT22;46196;52.970;6.954;2024-03-08T07:19:47;0.70;99.90
60353;DHT22;46196;52.970;6.954;2024-03-08T07:22:16;0.70;99.90
60353;DHT22;46196;52.970;6.954;2024-03-08T07:24:42;0.80;99.90
60353;DHT22;46196;52.970;6.954;2024-03-08T07:27:20;0.90;99.90
60353;DHT22;46196;52.970;6.954;2024-03-08T07:29:45;0.90;99.90
60353;DHT22;46196;52.970;6.954;2024-03-08T07:32:11;1.00;99.90
60353;DHT22;46196;52.970;6.954;2024-03-08T07:34:51;1.00;99.90
60353;DHT22;46196;52.970;6.954;2024-03-08T07:37:20;1.50;99.90
60353;DHT22;46196;52.970;6.954;2024-03-08T07:39:46;1.30;99.90
60353;DHT22;46196;52.970;6.954;2024-03-08T07:42:11;1.20;99.90
60353;DHT22;46196;52.970;6.954;2024-03-08T07:44:38;1.20;99.90
60353;DHT22;46196;52.970;6.954;2024-03-08T07:47:04;1.30;99.90
60353;DHT22;46196;52.970;6.954;2024-03-08T07:49:30;1.40;99.90
60353;DHT22;46196;52.970;6.954;2024-03-08T07:51:56;1.40;99.90
60353;DHT22;46196;52.970;6.954;2024-03-08T07:54:23;1.50;99.90
60353;DHT22;46196;52.970;6.954;2024-03-08T07:56:49;1.50;99.90
60353;DHT22;46196;52.970;6.954;2024-03-08T07:59:16;1.60;99.90
60353;DHT22;46196;52.970;6.954;2024-03-08T08:01:42;1.60;99.90
60353;DHT22;46196;52.970;6.954;2024-03-08T08:04:09;1.70;99.90
60353;DHT22;46196;52.970;6.954;2024-03-08T08:06:38;1.80;99.90
60353;DHT22;46196;52.970;6.954;2024-03-08T08:09:06;1.90;99.90
60353;DHT22;46196;52.970;6.954;2024-03-08T08:11:40;2.20;99.90
60353;DHT22;46196;52.970;6.954;2024-03-08T08:14:06;3.00;99.90
60353;DHT22;46196;52.970;6.954;2024-03-08T08:16:35;3.90;99.90
60353;DHT22;46196;52.970;6.954;2024-03-08T08:19:02;4.80;99.90
60353;DHT22;46196;52.970;6.954;2024-03-08T08:21:36;5.70;99.90
60353;DHT22;46196;52.970;6.954;2024-03-08T08:28:55;6.50;99.90
60353;DHT22;46196;52.970;6.954;2024-03-08T08:33:46;8.10;99.90
60353;DHT22;46196;52.970;6.954;2024-03-08T08:43:36;8.80;99.90
60353;DHT22;46196;52.970;6.954;2024-03-08T08:46:02;9.60;99.90
60353;DHT22;46196;52.970;6.954;2024-03-08T08:48:28;9.60;99.90
60353;DHT22;46196;52.970;6.954;2024-03-08T08:50:56;9.70;99.90
60353;DHT22;46196;52.970;6.954;2024-03-08T08:55:48;9.80;99.90
60353;DHT22;46196;52.970;6.954;2024-03-08T09:00:40;10.10;99.90
60353;DHT22;46196;52.970;6.954;2024-03-08T09:03:06;10.10;99.90
60353;DHT22;46196;52.970;6.954;2024-03-08T09:05:34;10.20;99.90
60353;DHT22;46196;52.970;6.954;2024-03-08T09:08:00;10.00;99.90
60353;DHT22;46196;52.970;6.954;2024-03-08T09:10:26;9.90;99.90
60353;DHT22;46196;52.970;6.954;2024-03-08T09:12:53;9.90;99.90
60353;DHT22;46196;52.970;6.954;2024-03-08T09:15:19;9.90;99.90
60353;DHT22;46196;52.970;6.954;2024-03-08T09:17:46;9.90;99.90
60353;DHT22;46196;52.970;6.954;2024-03-08T09:20:12;9.60;99.90
60353;DHT22;46196;52.970;6.954;2024-03-08T09:22:44;9.40;99.90
60353;DHT22;46196;52.970;6.954;2024-03-08T09:25:09;9.40;99.90
60353;DHT22;46196;52.970;6.954;2024-03-08T09:27:35;9.40;99.90
60353;DHT22;46196;52.970;6.954;2024-03-08T09:30:01;9.50;99.90
60353;DHT22;46196;52.970;6.954;2024-03-08T09:32:27;9.70;99.90
60353;DHT22;46196;52.970;6.954;2024-03-08T09:34:53;9.70;99.90
60353;DHT22;46196;52.970;6.954;2024-03-08T09:37:18;9.70;99.90
60353;DHT22;46196;52.970;6.954;2024-03-08T09:39:44;9.60;99.90
60353;DHT22;46196;52.970;6.954;2024-03-08T09:42:11;9.90;99.90
60353;DHT22;46196;52.970;6.954;2024-03-08T09:44:46;9.60;99.90
60353;DHT22;46196;52.970;6.954;2024-03-08T09:47:15;9.70;99.90
60353;DHT22;46196;52.970;6.954;2024-03-08T09:49:43;9.80;99.90
60353;DHT22;46196;52.970;6.954;2024-03-08T09:52:09;9.70;99.90
60353;DHT22;46196;52.970;6.954;2024-03-08T09:54:36;9.50;99.90
60353;DHT22;46196;52.970;6.954;2024-03-08T09:57:04;9.40;99.90
60353;DHT22;46196;52.970;6.954;2024-03-08T09:59:30;9.10;99.90
60353;DHT22;46196;52.970;6.954;2024-03-08T10:02:14;8.80;99.90
60353;DHT22;46196;52.970;6.954;2024-03-08T10:04:41;8.50;99.90
60353;DHT22;46196;52.970;6.954;2024-03-08T10:07:12;9.20;99.90
60353;DHT22;46196;52.970;6.954;2024-03-08T10:09:38;8.30;99.90
60353;DHT22;46196;52.970;6.954;2024-03-08T10:12:05;8.20;99.90
60353;DHT22;46196;52.970;6.954;2024-03-08T10:14:40;8.10;99.90
60353;DHT22;46196;52.970;6.954;2024-03-08T10:17:06;8.10;99.90
60353;DHT22;46196;52.970;6.954;2024-03-08T10:19:32;7.80;99.90
60353;DHT22;46196;52.970;6.954;2024-03-08T10:21:58;7.80;99.90
60353;DHT22;46196;52.970;6.954;2024-03-08T10:24:24;7.90;99.90
60353;DHT22;46196;52.970;6.954;2024-03-08T10:27:08;7.80;99.90
60353;DHT22;46196;52.970;6.954;2024-03-08T10:29:33;7.90;99.90
60353;DHT22;46196;52.970;6.954;2024-03-08T10:31:59;7.90;99.90
60353;DHT22;46196;52.970;6.954;2024-03-08T10:34:25;8.00;99.90
60353;DHT22;46196;52.970;6.954;2024-03-08T10:36:51;8.00;99.90
60353;DHT22;46196;52.970;6.954;2024-03-08T10:39:24;8.10;99.90
60353;DHT22;46196;52.970;6.954;2024-03-08T10:41:57;8.40;99.90
60353;DHT22;46196;52.970;6.954;2024-03-08T10:47:17;8.20;99.90
60353;DHT22;46196;52.970;6.954;2024-03-08T10:49:51;8.30;99.90
60353;DHT22;46196;52.970;6.954;2024-03-08T10:52:20;8.30;99.90
60353;DHT22;46196;52.970;6.954;2024-03-08T10:54:47;8.30;99.90
60353;DHT22;46196;52.970;6.954;2024-03-08T10:57:14;8.50;99.90
60353;DHT22;46196;52.970;6.954;2024-03-08T10:59:43;8.60;99.90
60353;DHT22;46196;52.970;6.954;2024-03-08T11:02:11;8.60;99.90
60353;DHT22;46196;52.970;6.954;2024-03-08T11:04:38;8.70;99.90
60353;DHT22;46196;52.970;6.954;2024-03-08T11:07:04;8.80;99.90
60353;DHT22;46196;52.970;6.954;2024-03-08T11:09:38;8.80;99.90
60353;DHT22;46196;52.970;6.954;2024-03-08T11:12:36;8.80;99.90
60353;DHT22;46196;52.970;6.954;2024-03-08T11:15:10;8.90;99.90
60353;DHT22;46196;52.970;6.954;2024-03-08T11:20:20;8.90;99.90
60353;DHT22;46196;52.970;6.954;2024-03-08T11:23:04;9.00;99.90
60353;DHT22;46196;52.970;6.954;2024-03-08T11:25:39;9.00;99.90
60353;DHT22;46196;52.970;6.954;2024-03-08T11:28:12;9.10;99.90
60353;DHT22;46196;52.970;6.954;2024-03-08T11:33:29;9.20;99.90
60353;DHT22;46196;52.970;6.954;2024-03-08T11:38:40;9.30;99.90
60353;DHT22;46196;52.970;6.954;2024-03-08T11:41:07;9.40;99.90
60353;DHT22;46196;52.970;6.954;2024-03-08T11:43:33;9.60;99.90
60353;DHT22;46196;52.970;6.954;2024-03-08T11:46:09;9.60;99.90
60353;DHT22;46196;52.970;6.954;2024-03-08T11:48:35;9.60;99.90
60353;DHT22;46196;52.970;6.954;2024-03-08T11:51:04;9.70;99.90
60353;DHT22;46196;52.970;6.954;2024-03-08T11:53:30;9.80;99.90
60353;DHT22;46196;52.970;6.954;2024-03-08T11:56:12;9.80;99.90
60353;DHT22;46196;52.970;6.954;2024-03-08T11:58:39;9.70;99.90
60353;DHT22;46196;52.970;6.954;2024-03-08T12:03:31;9.80;99.90
60353;DHT22;46196;52.970;6.954;2024-03-08T12:06:01;9.90;99.90
60353;DHT22;46196;52.970;6.954;2024-03-08T12:08:30;10.00;99.90
60353;DHT22;46196;52.970;6.954;2024-03-08T12:10:57;10.10;99.90
60353;DHT22;46196;52.970;6.954;2024-03-08T12:13:31;10.30;99.90
60353;DHT22;46196;52.970;6.954;2024-03-08T12:16:03;10.40;99.90
60353;DHT22;46196;52.970;6.954;2024-03-08T12:18:33;10.50;99.90
60353;DHT22;46196;52.970;6.954;2024-03-08T12:21:07;10.60;99.90
60353;DHT22;46196;52.970;6.954;2024-03-08T12:23:36;10.60;99.90
60353;DHT22;46196;52.970;6.954;2024-03-08T12:26:17;10.50;99.90
60353;DHT22;46196;52.970;6.954;2024-03-08T12:28:44;10.60;99.90
60353;DHT22;46196;52.970;6.954;2024-03-08T12:31:12;10.50;99.90
60353;DHT22;46196;52.970;6.954;2024-03-08T12:33:51;10.70;99.90
60353;DHT22;46196;52.970;6.954;2024-03-08T12:36:18;10.90;99.90
60353;DHT22;46196;52.970;6.954;2024-03-08T12:38:48;11.00;99.90
60353;DHT22;46196;52.970;6.954;2024-03-08T12:41:18;11.10;99.90
60353;DHT22;46196;52.970;6.954;2024-03-08T12:43:45;11.30;99.90
60353;DHT22;46196;52.970;6.954;2024-03-08T12:46:18;11.40;99.90
60353;DHT22;46196;52.970;6.954;2024-03-08T12:48:48;11.40;99.90
60353;DHT22;46196;52.970;6.954;2024-03-08T12:51:15;11.40;99.30
60353;DHT22;46196;52.970;6.954;2024-03-08T12:53:45;11.30;99.30
60353;DHT22;46196;52.970;6.954;2024-03-08T12:56:11;11.30;99.60
60353;DHT22;46196;52.970;6.954;2024-03-08T12:58:37;11.30;99.00
60353;DHT22;46196;52.970;6.954;2024-03-08T13:01:04;11.30;99.90
60353;DHT22;46196;52.970;6.954;2024-03-08T13:03:36;11.40;99.20
60353;DHT22;46196;52.970;6.954;2024-03-08T13:06:03;11.50;98.90
60353;DHT22;46196;52.970;6.954;2024-03-08T13:13:29;11.80;99.40
60353;DHT22;46196;52.970;6.954;2024-03-08T13:18:22;12.90;97.00
60353;DHT22;46196;52.970;6.954;2024-03-08T13:20:48;13.30;96.60
60353;DHT22;46196;52.970;6.954;2024-03-08T13:23:18;13.50;96.80
60353;DHT22;46196;52.970;6.954;2024-03-08T13:25:43;13.60;95.40
60353;DHT22;46196;52.970;6.954;2024-03-08T13:28:09;13.60;94.60
60353;DHT22;46196;52.970;6.954;2024-03-08T13:30:36;13.50;94.90
60353;DHT22;46196;52.970;6.954;2024-03-08T13:33:02;13.50;94.80
60353;DHT22;46196;52.970;6.954;2024-03-08T13:35:33;13.40;94.10
60353;DHT22;46196;52.970;6.954;2024-03-08T13:37:59;13.50;93.70
60353;DHT22;46196;52.970;6.954;2024-03-08T13:40:28;13.60;93.50
60353;DHT22;46196;52.970;6.954;2024-03-08T13:42:54;13.50;93.70
60353;DHT22;46196;52.970;6.954;2024-03-08T13:45:20;13.50;92.60
60353;DHT22;46196;52.970;6.954;2024-03-08T13:47:53;13.30;93.70
60353;DHT22;46196;52.970;6.954;2024-03-08T13:50:19;13.00;93.50
60353;DHT22;46196;52.970;6.954;2024-03-08T13:52:49;12.90;93.40
60353;DHT22;46196;52.970;6.954;2024-03-08T13:55:19;12.60;94.00
60353;DHT22;46196;52.970;6.954;2024-03-08T13:57:45;12.50;94.50
60353;DHT22;46196;52.970;6.954;2024-03-08T14:00:13;12.40;93.20
60353;DHT22;46196;52.970;6.954;2024-03-08T14:02:40;12.20;93.60
60353;DHT22;46196;52.970;6.954;2024-03-08T14:05:09;12.10;94.90
60353;DHT22;46196;52.970;6.954;2024-03-08T14:07:36;12.00;95.30
60353;DHT22;46196;52.970;6.954;2024-03-08T14:10:02;11.90;94.70
60353;DHT22;46196;52.970;6.954;2024-03-08T14:12:28;11.90;94.90
60353;DHT22;46196;52.970;6.954;2024-03-08T14:14:55;11.80;95.10
60353;DHT22;46196;52.970;6.954;2024-03-08T14:17:25;11.70;95.40
60353;DHT22;46196;52.970;6.954;2024-03-08T14:19:52;11.70;93.70
60353;DHT22;46196;52.970;6.954;2024-03-08T14:22:18;11.60;95.30
60353;DHT22;46196;52.970;6.954;2024-03-08T14:24:44;11.40;94.70
60353;DHT22;46196;52.970;6.954;2024-03-08T14:27:10;11.30;94.20
60353;DHT22;46196;52.970;6.954;2024-03-08T14:29:38;11.20;94.90
60353;DHT22;46196;52.970;6.954;2024-03-08T14:32:05;11.20;94.60
60353;DHT22;46196;52.970;6.954;2024-03-08T14:34:32;11.10;95.00
60353;DHT22;46196;52.970;6.954;2024-03-08T14:37:00;11.00;95.20
60353;DHT22;46196;52.970;6.954;2024-03-08T14:39:26;11.00;95.30
60353;DHT22;46196;52.970;6.954;2024-03-08T14:41:55;11.00;95.40
60353;DHT22;46196;52.970;6.954;2024-03-08T14:44:21;11.00;95.40
60353;DHT22;46196;52.970;6.954;2024-03-08T14:46:57;11.00;95.10
60353;DHT22;46196;52.970;6.954;2024-03-08T14:49:23;11.00;96.30
60353;DHT22;46196;52.970;6.954;2024-03-08T14:51:48;10.90;95.40
60353;DHT22;46196;52.970;6.954;2024-03-08T14:54:14;10.90;95.00
60353;DHT22;46196;52.970;6.954;2024-03-08T14:56:40;10.80;95.60
60353;DHT22;46196;52.970;6.954;2024-03-08T14:59:08;10.80;96.10
60353;DHT22;46196;52.970;6.954;2024-03-08T15:01:35;10.70;95.80
60353;DHT22;46196;52.970;6.954;2024-03-08T15:04:04;10.70;95.80
60353;DHT22;46196;52.970;6.954;2024-03-08T15:06:35;10.70;96.40
60353;DHT22;46196;52.970;6.954;2024-03-08T15:09:03;10.70;96.10
60353;DHT22;46196;52.970;6.954;2024-03-08T15:11:47;10.70;96.30
60353;DHT22;46196;52.970;6.954;2024-03-08T15:14:15;10.60;96.00
60353;DHT22;46196;52.970;6.954;2024-03-08T15:16:42;10.70;97.20
60353;DHT22;46196;52.970;6.954;2024-03-08T15:19:08;10.60;96.90
60353;DHT22;46196;52.970;6.954;2024-03-08T15:21:35;10.60;96.10
60353;DHT22;46196;52.970;6.954;2024-03-08T15:24:02;10.60;96.20
60353;DHT22;46196;52.970;6.954;2024-03-08T15:26:29;10.60;97.20
60353;DHT22;46196;52.970;6.954;2024-03-08T15:28:56;10.60;97.20
60353;DHT22;46196;52.970;6.954;2024-03-08T15:31:22;10.50;97.70
60353;DHT22;46196;52.970;6.954;2024-03-08T15:33:50;10.40;97.50
60353;DHT22;46196;52.970;6.954;2024-03-08T15:36:24;10.50;97.60
60353;DHT22;46196;52.970;6.954;2024-03-08T15:38:54;10.50;97.40
60353;DHT22;46196;52.970;6.954;2024-03-08T15:41:19;10.50;97.40
60353;DHT22;46196;52.970;6.954;2024-03-08T15:43:46;10.50;97.70
60353;DHT22;46196;52.970;6.954;2024-03-08T15:46:12;10.50;97.60
60353;DHT22;46196;52.970;6.954;2024-03-08T15:48:38;10.40;97.50
60353;DHT22;46196;52.970;6.954;2024-03-08T15:51:08;10.40;97.70
60353;DHT22;46196;52.970;6.954;2024-03-08T15:53:36;10.40;97.40
60353;DHT22;46196;52.970;6.954;2024-03-08T15:56:03;10.30;97.80
60353;DHT22;46196;52.970;6.954;2024-03-08T15:58:36;10.20;97.70
60353;DHT22;46196;52.970;6.954;2024-03-08T16:01:03;10.10;98.20
60353;DHT22;46196;52.970;6.954;2024-03-08T16:03:32;10.00;98.10
60353;DHT22;46196;52.970;6.954;2024-03-08T16:05:58;9.90;98.20
60353;DHT22;46196;52.970;6.954;2024-03-08T16:08:24;9.80;98.60
60353;DHT22;46196;52.970;6.954;2024-03-08T16:10:52;9.80;99.00
60353;DHT22;46196;52.970;6.954;2024-03-08T16:13:23;9.80;99.10
60353;DHT22;46196;52.970;6.954;2024-03-08T16:15:51;9.70;99.00
60353;DHT22;46196;52.970;6.954;2024-03-08T16:18:18;9.60;99.40
60353;DHT22;46196;52.970;6.954;2024-03-08T16:20:47;9.50;99.70
60353;DHT22;46196;52.970;6.954;2024-03-08T16:23:13;9.50;99.90
60353;DHT22;46196;52.970;6.954;2024-03-08T16:25:42;9.40;99.90